Athalassa, Cyprus

6:24 PM EEST on September 04, 2015 (GMT +0300)
Makedonitissa - G. Yiallouris | | Change Station
CLOSE
Current Station
Personal Weather Station
Location: Nicosia, NICOSIA
Elevation: 676 ft
Nearby Weather Stations

Elev 676 ft 35.15 °N, 33.30 °E | Updated 7 seconds ago

Scattered Clouds
Scattered Clouds
82.8 °F
Feels Like 86 °F
N
7.6
Wind Variable Wind from WNW
Gusts 9.8 mph

Today
High -- | Low -- °F
--% Chance of Precip.
Yesterday
High -- | Low -- °F
Precip. -- in
6:20 AM 7:09 PM
Waning Gibbous, 58% visible
Pressure 29.83 in
Visibility 6.2 miles
Clouds Scattered Clouds 3000 ft
Heat Index 86 °F
Dew Point 68 °F
Humidity 60%
Rainfall 0.00 in
Snow Depth Not available.
UV 1.0 out of 12
Pollen Not available.
Air Quality Not available.
Flu Activity Not available.
METAR LCEN 041450Z 14008KT 9999 SCT030 31/19 Q1010 NOSIG
Pressure 29.83 in
Visibility 6.2 miles
Clouds Scattered Clouds 3000 ft
Heat Index 86 °F
Dew Point 68 °F
Humidity 60%
Rainfall 0.00 in
Snow Depth Not available.
UV 1.0 out of 12
Pollen Not available.
Air Quality Not available.
Flu Activity Not available.
METAR LCEN 041450Z 14008KT 9999 SCT030 31/19 Q1010 NOSIG

10-Day Weather Forecast

×

Almanac

Astronomy

Sep. 04, 2015 Rise Set
Actual Time
Civil Twilight
Nautical Twilight
Astronomical Twilight
Moon
Length of Visible Light
Length of Day
Tomorrow will be .
, % of the Moon is Illuminated

Today's Extremes

Country Highs Country Lows

Community

WunderPhotos

Upload Photos

1,852,194 photos uploaded!

WunderBlogs® & News

Nearby

Air Quality

  Air Quality AQ Index Pollutant
Not available.

Snow Depth

Station Depth Elevation

Earthquake Activity

City Distance Mag. Time & Date
Minimum magnitude displayed is 2.5.

Coastal Water Temperatures

Place Temperature

Stations

Nearby Weather Stations

Station Location Temp. Windchill Dew Point Humidity Wind Precip. Elev Updated Type